createdAt,value
2018-07-30T05:23:43.737Z,99243.23
2018-07-30T05:26:14.259Z,99247.73
2018-07-30T05:28:45.640Z,99249.92
2018-07-30T05:31:15.755Z,99252.00
2018-07-30T05:33:45.952Z,99254.87
2018-07-30T05:36:15.862Z,99253.14
2018-07-30T05:38:45.872Z,99258.35
2018-07-30T05:41:16.619Z,99257.75
2018-07-30T05:43:46.711Z,99262.37
2018-07-30T05:46:17.084Z,99263.52
2018-07-30T05:48:47.034Z,99259.83
2018-07-30T05:51:17.152Z,99270.22
2018-07-30T05:53:47.402Z,99271.14
2018-07-30T05:56:18.187Z,99267.92
2018-07-30T05:58:48.393Z,99274.39
2018-07-30T06:01:19.522Z,99268.37
2018-07-30T06:03:50.227Z,99267.92
2018-07-30T06:06:20.227Z,99266.17
2018-07-30T06:08:50.799Z,99261.92
2018-07-30T06:11:20.872Z,99263.19
2018-07-30T06:13:50.761Z,99262.76
2018-07-30T06:16:20.772Z,99267.03
2018-07-30T06:18:50.791Z,99269.81
2018-07-30T06:21:20.901Z,99274.09
2018-07-30T06:23:50.796Z,99277.06
2018-07-30T06:26:20.710Z,99283.77
2018-07-30T06:28:51.037Z,99277.44
2018-07-30T06:31:21.741Z,99283.65
2018-07-30T06:33:51.864Z,99287.82
2018-07-30T06:36:22.139Z,99293.23
2018-07-30T06:38:52.496Z,99296.12
2018-07-30T06:41:23.163Z,99296.67
2018-07-30T06:43:53.159Z,99294.15
2018-07-30T06:46:23.409Z,99299.59
2018-07-30T06:48:53.464Z,99298.89
2018-07-30T06:51:23.763Z,99299.81
2018-07-30T06:53:53.900Z,99296.09
2018-07-30T06:56:24.494Z,99294.95
2018-07-30T06:58:54.539Z,99299.00
2018-07-30T07:01:24.677Z,99299.31
2018-07-30T07:03:54.751Z,99298.64
2018-07-30T07:06:24.872Z,99305.58
2018-07-30T07:08:54.994Z,99301.98
2018-07-30T07:11:24.831Z,99305.09
2018-07-30T07:13:54.867Z,99310.88
2018-07-30T07:16:24.994Z,99307.87
2018-07-30T07:18:55.191Z,99307.73
2018-07-30T07:21:25.325Z,99310.05
2018-07-30T07:23:55.723Z,99313.84
2018-07-30T07:26:25.783Z,99318.45
2018-07-30T07:28:55.858Z,99315.44
2018-07-30T07:31:26.367Z,99321.56
2018-07-30T07:33:56.775Z,99322.50
2018-07-30T07:36:26.745Z,99314.28
2018-07-30T07:38:56.748Z,99311.51
2018-07-30T07:41:26.793Z,99316.83
2018-07-30T07:43:56.950Z,99318.11
2018-07-30T07:46:26.903Z,99318.21
2018-07-30T07:48:57.023Z,99317.06
2018-07-30T07:51:26.973Z,99316.59
2018-07-30T07:53:57.048Z,99331.37
2018-07-30T07:56:27.331Z,99325.59
2018-07-30T07:58:57.605Z,99328.83
2018-07-30T08:01:28.032Z,99320.54
2018-07-30T08:03:58.092Z,99324.70
2018-07-30T08:06:28.497Z,99320.98
2018-07-30T08:08:59.216Z,99316.59
2018-07-30T08:11:29.446Z,99328.59
2018-07-30T08:13:59.544Z,99327.78
2018-07-30T08:16:29.656Z,99326.27
2018-07-30T08:18:59.775Z,99328.80
2018-07-30T08:21:30.387Z,99329.04
2018-07-30T08:24:00.436Z,99337.80
2018-07-30T08:26:30.556Z,99339.33
2018-07-30T08:29:00.736Z,99338.07
2018-07-30T08:31:31.087Z,99332.72
2018-07-30T08:34:01.165Z,99331.53
2018-07-30T08:36:31.475Z,99331.63
2018-07-30T08:39:01.698Z,99331.25
2018-07-30T08:41:31.765Z,99331.02
2018-07-30T08:44:01.932Z,99330.67
2018-07-30T08:46:32.126Z,99331.48
2018-07-30T08:49:02.152Z,99332.36
2018-07-30T08:51:32.184Z,99334.75
2018-07-30T08:54:02.178Z,99334.16
2018-07-30T08:56:32.208Z,99334.58
2018-07-30T08:59:02.348Z,99340.70
2018-07-30T09:01:32.482Z,99342.27
2018-07-30T09:04:02.907Z,99348.62
2018-07-30T09:06:32.827Z,99340.72
2018-07-30T09:09:02.939Z,99340.00
2018-07-30T09:11:32.924Z,99342.87
2018-07-30T09:14:02.983Z,99333.81
2018-07-30T09:16:32.995Z,99338.53
2018-07-30T09:19:02.926Z,99340.33
2018-07-30T09:21:33.935Z,99336.48
2018-07-30T09:24:04.223Z,99336.56
2018-07-30T09:26:34.347Z,99333.48
2018-07-30T09:29:04.587Z,99331.87
2018-07-30T09:31:34.672Z,99327.86
2018-07-30T09:34:04.669Z,99321.08
2018-07-30T09:36:34.825Z,99326.22
2018-07-30T09:39:06.859Z,99321.20
2018-07-30T09:41:37.140Z,99317.77
2018-07-30T09:44:07.365Z,99312.51
2018-07-30T09:46:37.122Z,99316.38
2018-07-30T09:49:07.846Z,99320.66
2018-07-30T09:51:37.863Z,99321.90
2018-07-30T09:54:07.891Z,99323.72
2018-07-30T09:56:37.868Z,99317.67
2018-07-30T09:59:07.751Z,99318.79
2018-07-30T10:01:37.751Z,99317.31
2018-07-30T10:04:07.517Z,99318.15
2018-07-30T10:06:37.717Z,99323.93
2018-07-30T10:09:11.015Z,99312.20
2018-07-30T10:11:40.965Z,99314.63
2018-07-30T10:14:10.975Z,99319.55
2018-07-30T10:16:41.197Z,99316.22
2018-07-30T10:19:11.186Z,99312.27
2018-07-30T10:21:41.026Z,99311.53
2018-07-30T10:24:11.106Z,99301.42
2018-07-30T10:26:40.982Z,99313.50
2018-07-30T10:29:11.043Z,99303.88
2018-07-30T10:31:40.902Z,99303.05
2018-07-30T10:34:10.898Z,99302.38
2018-07-30T10:36:40.999Z,99302.74
2018-07-30T10:39:10.936Z,99300.23
2018-07-30T10:41:40.969Z,99290.73
2018-07-30T10:44:10.918Z,99295.64
2018-07-30T10:46:41.282Z,99294.77
2018-07-30T10:49:11.624Z,99294.88
2018-07-30T10:51:41.592Z,99294.21
2018-07-30T10:54:11.622Z,99296.47
2018-07-30T10:56:41.571Z,99292.16
2018-07-30T10:59:11.698Z,99284.15
2018-07-30T11:01:41.686Z,99271.33
2018-07-30T11:04:12.172Z,99278.44
2018-07-30T11:06:42.033Z,99274.56
2018-07-30T11:09:13.803Z,99274.48
2018-07-30T11:11:42.594Z,99279.73
2018-07-30T11:14:12.364Z,99275.42
2018-07-30T11:16:42.207Z,99274.91
2018-07-30T11:19:12.250Z,99271.56
2018-07-30T11:21:42.270Z,99268.00
2018-07-30T11:24:12.576Z,99271.64
2018-07-30T11:26:42.543Z,99269.33
2018-07-30T11:29:12.590Z,99274.36
2018-07-30T11:31:42.543Z,99270.36
2018-07-30T11:34:12.313Z,99273.59
2018-07-30T11:36:42.178Z,99270.80
2018-07-30T11:39:13.530Z,99264.66
2018-07-30T11:41:43.686Z,99265.70
2018-07-30T11:44:14.414Z,99265.73
2018-07-30T11:46:44.334Z,99262.59
2018-07-30T11:49:14.220Z,99265.46
2018-07-30T11:51:44.075Z,99263.94
2018-07-30T11:54:14.887Z,99261.27
2018-07-30T11:56:44.952Z,99264.63
2018-07-30T11:59:14.837Z,99263.63
2018-07-30T12:01:44.930Z,99262.42
2018-07-30T12:04:15.123Z,99257.64
2018-07-30T12:06:44.917Z,99262.20
2018-07-30T12:09:15.167Z,99259.73
2018-07-30T12:11:45.671Z,99258.34
2018-07-30T12:14:16.535Z,99259.41
2018-07-30T12:16:46.834Z,99255.86
2018-07-30T12:19:17.797Z,99249.35
2018-07-30T12:21:49.708Z,99242.02
2018-07-30T12:24:20.011Z,99245.66
2018-07-30T12:26:50.115Z,99251.87
2018-07-30T12:29:19.893Z,99246.89
2018-07-30T12:31:49.672Z,99250.12
2018-07-30T12:34:19.514Z,99240.16
2018-07-30T12:36:49.399Z,99242.77
2018-07-30T12:39:19.342Z,99243.59
2018-07-30T12:41:49.345Z,99236.70
2018-07-30T12:44:19.690Z,99232.71
2018-07-30T12:46:49.896Z,99230.56
2018-07-30T12:49:19.849Z,99225.83
2018-07-30T12:51:50.193Z,99227.09
2018-07-30T12:54:20.237Z,99223.55
2018-07-30T12:56:50.897Z,99221.22
2018-07-30T12:59:21.020Z,99222.06
2018-07-30T13:01:50.848Z,99218.91
2018-07-30T13:04:20.591Z,99212.72
2018-07-30T13:06:50.683Z,99209.82
2018-07-30T13:09:20.730Z,99208.07
2018-07-30T13:11:50.844Z,99206.09
2018-07-30T13:14:20.809Z,99201.49
2018-07-30T13:16:50.893Z,99197.52
2018-07-30T13:19:20.684Z,99200.13
2018-07-30T13:21:50.462Z,99195.17
2018-07-30T13:24:21.235Z,99191.38
2018-07-30T13:26:51.259Z,99190.02
2018-07-30T13:29:21.280Z,99182.84
2018-07-30T13:31:51.204Z,99194.86
2018-07-30T13:34:21.291Z,99190.07
2018-07-30T13:36:57.807Z,99181.66
2018-07-30T13:39:27.733Z,99173.44
2018-07-30T13:41:57.797Z,99175.65
2018-07-30T13:44:27.879Z,99184.27
2018-07-30T13:46:58.115Z,99182.69
2018-07-30T13:49:27.939Z,99173.87
2018-07-30T13:51:57.781Z,99184.30
2018-07-30T13:54:28.443Z,99177.50
2018-07-30T13:57:01.500Z,99166.91
2018-07-30T13:59:31.530Z,99170.31
2018-07-30T14:02:01.760Z,99171.49
2018-07-30T14:04:31.537Z,99170.50
2018-07-30T14:07:01.477Z,99167.49
2018-07-30T14:09:31.551Z,99161.67
2018-07-30T14:12:01.642Z,99154.87
2018-07-30T14:14:32.486Z,99158.06
2018-07-30T14:17:02.377Z,99160.47
2018-07-30T14:19:32.235Z,99154.46
2018-07-30T14:22:02.080Z,99156.04
2018-07-30T14:24:32.250Z,99151.84
2018-07-30T14:27:02.187Z,99154.66
2018-07-30T14:29:32.000Z,99151.08
2018-07-30T14:32:02.981Z,99157.88
2018-07-30T14:34:32.849Z,99156.85
2018-07-30T14:37:02.761Z,99150.66
2018-07-30T14:39:32.922Z,99155.08
2018-07-30T14:42:02.716Z,99158.27
2018-07-30T14:44:32.962Z,99155.47
2018-07-30T14:47:03.040Z,99149.47
2018-07-30T14:49:33.413Z,99148.87
2018-07-30T14:52:03.614Z,99150.67
2018-07-30T14:54:33.911Z,99149.48
2018-07-30T14:57:04.229Z,99157.27
2018-07-30T14:59:34.495Z,99148.47
2018-07-30T15:02:04.954Z,99153.87
2018-07-30T15:04:35.201Z,99141.85
2018-07-30T15:07:06.197Z,99140.45
2018-07-30T15:09:36.453Z,99148.70
2018-07-30T15:12:06.863Z,99148.48
2018-07-30T15:14:37.375Z,99139.27
2018-07-30T15:17:07.664Z,99133.84
2018-07-30T15:19:38.048Z,99138.05
2018-07-30T15:22:08.428Z,99140.67
2018-07-30T15:24:38.608Z,99145.69
2018-07-30T15:27:08.993Z,99137.06
2018-07-30T15:29:38.931Z,99135.45
2018-07-30T15:32:09.463Z,99135.66
2018-07-30T15:34:39.593Z,99139.05
2018-07-30T15:37:10.243Z,99137.05
2018-07-30T15:39:40.675Z,99138.25
2018-07-30T15:42:11.003Z,99137.06
2018-07-30T15:44:41.729Z,99142.67
2018-07-30T15:47:11.993Z,99139.66
2018-07-30T15:49:42.823Z,99136.66
2018-07-30T15:52:12.908Z,99144.05
2018-07-30T15:54:43.385Z,99141.04
2018-07-30T15:57:14.161Z,99143.84
2018-07-30T15:59:44.726Z,99145.03
2018-07-30T16:02:14.980Z,99134.22
2018-07-30T16:04:45.207Z,99139.81
2018-07-30T16:07:15.515Z,99140.03
2018-07-30T16:09:45.650Z,99140.23
2018-07-30T16:12:15.843Z,99133.81
2018-07-30T16:14:46.186Z,99137.56
2018-07-30T16:17:16.288Z,99137.77
2018-07-30T16:19:46.413Z,99136.95
2018-07-30T16:22:16.660Z,99136.93
2018-07-30T16:24:47.125Z,99146.09
2018-07-30T16:27:17.682Z,99144.66
2018-07-30T16:29:47.902Z,99144.05
2018-07-30T16:32:18.200Z,99158.20
2018-07-30T16:34:48.432Z,99156.14
2018-07-30T16:37:18.491Z,99155.52
2018-07-30T16:39:48.756Z,99151.66
2018-07-30T16:42:19.473Z,99159.64
2018-07-30T16:44:49.562Z,99155.22
2018-07-30T16:47:19.745Z,99161.98
2018-07-30T16:49:50.507Z,99156.74
2018-07-30T16:54:55.672Z,99154.56
2018-07-30T16:57:25.621Z,99163.90
2018-07-30T16:59:55.796Z,99164.47
2018-07-30T17:02:26.095Z,99159.07
2018-07-30T17:04:56.342Z,99165.45
2018-07-30T17:07:26.650Z,99178.59
2018-07-30T17:09:57.492Z,99178.91
2018-07-30T17:12:28.130Z,99172.62
2018-07-30T17:14:58.862Z,99176.54
2018-07-30T17:17:29.116Z,99175.64
2018-07-30T17:19:59.194Z,99176.36
2018-07-30T17:22:29.453Z,99176.70
2018-07-30T17:24:59.699Z,99179.03
2018-07-30T17:27:30.023Z,99176.98
2018-07-30T17:30:00.375Z,99175.52
2018-07-30T17:32:30.914Z,99173.25
2018-07-30T17:35:01.516Z,99175.78
2018-07-30T17:37:32.789Z,99173.73
2018-07-30T17:40:03.241Z,99171.09
2018-07-30T17:42:33.611Z,99168.48
2018-07-30T17:45:05.408Z,99166.46
2018-07-30T17:47:37.743Z,99172.78
2018-07-30T17:50:08.787Z,99175.09
2018-07-30T17:52:39.377Z,99168.84
2018-07-30T17:55:09.763Z,99166.38
2018-07-30T17:57:40.387Z,99169.35
2018-07-30T18:00:11.392Z,99179.88
2018-07-30T18:02:41.576Z,99179.03
2018-07-30T18:05:12.084Z,99172.60
2018-07-30T18:07:42.464Z,99185.33
2018-07-30T18:10:12.994Z,99181.88
2018-07-30T18:12:43.288Z,99179.20
2018-07-30T18:15:19.347Z,99183.88
2018-07-30T18:17:49.619Z,99180.41
2018-07-30T18:20:19.853Z,99181.90
2018-07-30T18:22:50.259Z,99185.62
2018-07-30T18:25:20.185Z,99191.09
2018-07-30T18:27:50.466Z,99178.64
2018-07-30T18:30:20.622Z,99187.94
2018-07-30T18:32:50.943Z,99190.19
2018-07-30T18:35:21.121Z,99186.35
2018-07-30T18:37:51.598Z,99195.61
2018-07-30T18:40:22.348Z,99191.54
2018-07-30T18:42:53.424Z,99193.59
2018-07-30T18:45:23.582Z,99198.30
2018-07-30T18:47:53.535Z,99195.85
2018-07-30T18:50:23.855Z,99198.58
2018-07-30T18:52:54.125Z,99199.69
2018-07-30T18:55:24.511Z,99198.23
2018-07-30T18:57:54.700Z,99193.77
2018-07-30T19:00:24.809Z,99193.94
2018-07-30T19:02:55.357Z,99190.84
2018-07-30T19:05:26.946Z,99197.74
2018-07-30T19:07:57.470Z,99209.98
2018-07-30T19:10:27.731Z,99207.72
2018-07-30T19:12:57.931Z,99213.22
2018-07-30T19:15:28.117Z,99214.91
2018-07-30T19:17:58.586Z,99214.84
2018-07-30T19:20:29.418Z,99219.53
2018-07-30T19:22:59.805Z,99214.29
2018-07-30T19:25:29.883Z,99220.79
2018-07-30T19:28:00.372Z,99216.20
2018-07-30T19:30:30.398Z,99218.75
2018-07-30T19:33:00.963Z,99218.52
2018-07-30T19:35:31.130Z,99220.66
2018-07-30T19:38:01.281Z,99220.23
2018-07-30T19:40:31.626Z,99225.34
2018-07-30T19:43:01.860Z,99225.27
2018-07-30T19:45:32.284Z,99228.21
2018-07-30T19:48:08.560Z,99228.11
2018-07-30T19:50:38.746Z,99225.03
2018-07-30T19:53:09.387Z,99228.32
2018-07-30T19:55:39.998Z,99234.62
2018-07-30T19:58:11.365Z,99229.80
2018-07-30T20:00:41.931Z,99240.03
2018-07-30T20:03:12.808Z,99237.99
2018-07-30T20:05:43.216Z,99240.55
2018-07-30T20:08:13.702Z,99239.50
2018-07-30T20:10:44.113Z,99244.26
2018-07-30T20:13:14.709Z,99243.45
2018-07-30T20:15:45.260Z,99248.43
2018-07-30T20:18:15.383Z,99245.45
2018-07-30T20:20:46.015Z,99254.14
2018-07-30T20:23:16.641Z,99252.52
2018-07-30T20:25:46.922Z,99257.89
2018-07-30T20:28:17.275Z,99251.87
2018-07-30T20:30:47.622Z,99254.80
2018-07-30T20:33:18.763Z,99255.96
2018-07-30T20:35:49.127Z,99262.25
2018-07-30T20:38:19.887Z,99261.22
2018-07-30T20:40:49.989Z,99264.38
2018-07-30T20:43:20.351Z,99271.09
2018-07-30T20:45:50.519Z,99275.04
2018-07-30T20:48:21.748Z,99270.87
2018-07-30T20:50:51.993Z,99270.87
2018-07-30T20:53:22.271Z,99274.61
2018-07-30T20:55:52.431Z,99280.29
2018-07-30T20:58:22.627Z,99287.62
2018-07-30T21:00:52.813Z,99289.36
2018-07-30T21:03:23.016Z,99293.30
2018-07-30T21:05:53.957Z,99303.03
2018-07-30T21:08:24.247Z,99295.30
2018-07-30T21:10:54.731Z,99310.13
2018-07-30T21:13:24.878Z,99302.59
2018-07-30T21:15:55.795Z,99305.69
2018-07-30T21:18:25.981Z,99311.83
2018-07-30T21:20:56.671Z,99312.44
2018-07-30T21:23:26.909Z,99318.58
2018-07-30T21:25:57.339Z,99310.36
2018-07-30T21:28:27.535Z,99318.27
2018-07-30T21:30:58.126Z,99320.23
2018-07-30T21:33:28.346Z,99314.24
2018-07-30T21:36:01.577Z,99324.31
2018-07-30T21:38:31.853Z,99322.50
2018-07-30T21:41:02.411Z,99313.61
2018-07-30T21:43:32.502Z,99316.53
2018-07-30T21:46:02.771Z,99315.14
2018-07-30T21:48:33.032Z,99315.84
2018-07-30T21:51:03.000Z,99309.84
2018-07-30T21:53:33.102Z,99316.36
2018-07-30T21:56:03.335Z,99319.25
2018-07-30T21:58:33.503Z,99313.84
2018-07-30T22:01:03.674Z,99310.59
2018-07-30T22:03:33.546Z,99308.54
2018-07-30T22:06:03.871Z,99307.30
2018-07-30T22:08:33.992Z,99310.80
2018-07-30T22:11:04.068Z,99310.13
2018-07-30T22:13:34.287Z,99314.63
2018-07-30T22:16:04.906Z,99314.78
2018-07-30T22:18:35.312Z,99311.53
2018-07-30T22:21:05.583Z,99315.47
2018-07-30T22:23:35.971Z,99309.24
2018-07-30T22:26:06.315Z,99305.77
2018-07-30T22:28:36.555Z,99302.55
2018-07-30T22:31:07.519Z,99302.89
2018-07-30T22:33:37.710Z,99306.16
2018-07-30T22:36:07.912Z,99300.52
2018-07-30T22:38:38.024Z,99302.61
2018-07-30T22:41:08.452Z,99297.78
2018-07-30T22:43:38.771Z,99299.05
2018-07-30T22:46:08.666Z,99303.34
2018-07-30T22:48:38.881Z,99297.13
2018-07-30T22:51:09.342Z,99303.02
2018-07-30T22:53:39.342Z,99299.33
2018-07-30T22:56:09.466Z,99296.12
2018-07-30T22:58:40.016Z,99296.83
2018-07-30T23:01:10.200Z,99298.94
2018-07-30T23:03:40.477Z,99303.20
2018-07-30T23:06:10.656Z,99297.32
2018-07-30T23:08:41.558Z,99306.59
2018-07-30T23:11:11.526Z,99294.35
2018-07-30T23:13:42.679Z,99297.57
2018-07-30T23:16:12.992Z,99299.44
2018-07-30T23:18:43.283Z,99302.34
2018-07-30T23:21:13.945Z,99294.26
2018-07-30T23:23:44.067Z,99303.30
2018-07-30T23:26:14.091Z,99306.20
2018-07-30T23:28:44.367Z,99304.14
2018-07-30T23:31:14.680Z,99299.87
2018-07-30T23:33:45.183Z,99298.59
2018-07-30T23:36:15.376Z,99300.68
2018-07-30T23:38:45.615Z,99291.45
2018-07-30T23:41:15.787Z,99289.62
2018-07-30T23:43:45.883Z,99292.48
2018-07-30T23:46:16.046Z,99290.09
2018-07-30T23:48:46.610Z,99288.02
2018-07-30T23:51:16.718Z,99287.78
2018-07-30T23:53:48.267Z,99287.31
2018-07-30T23:56:18.548Z,99283.52
2018-07-30T23:58:49.220Z,99285.00
